sensor_id;sensor_type;location;lat;lon;timestamp;pressure;altitude;pressure_sealevel;temperature;humidity
42859;BME280;28505;56.970;40.998;2023-05-22T00:04:16;100971.06;;;12.16;100.00
42859;BME280;28505;56.970;40.998;2023-05-22T00:09:41;100975.09;;;12.18;100.00
42859;BME280;28505;56.970;40.998;2023-05-22T00:15:03;100977.63;;;12.05;100.00
42859;BME280;28505;56.970;40.998;2023-05-22T00:20:26;100991.47;;;11.88;100.00
42859;BME280;28505;56.970;40.998;2023-05-22T00:25:47;100998.75;;;11.82;100.00
42859;BME280;28505;56.970;40.998;2023-05-22T00:31:11;100985.28;;;11.77;100.00
42859;BME280;28505;56.970;40.998;2023-05-22T00:36:32;100990.94;;;11.76;100.00
42859;BME280;28505;56.970;40.998;2023-05-22T00:41:54;100979.63;;;11.63;100.00
42859;BME280;28505;56.970;40.998;2023-05-22T00:47:16;100970.47;;;11.64;100.00
42859;BME280;28505;56.970;40.998;2023-05-22T00:52:40;100960.19;;;11.66;100.00
42859;BME280;28505;56.970;40.998;2023-05-22T00:58:04;100955.28;;;11.79;100.00
42859;BME280;28505;56.970;40.998;2023-05-22T01:03:29;100955.53;;;11.82;100.00
42859;BME280;28505;56.970;40.998;2023-05-22T01:08:52;100949.38;;;11.71;100.00
42859;BME280;28505;56.970;40.998;2023-05-22T01:31:05;100956.28;;;11.98;100.00
42859;BME280;28505;56.970;40.998;2023-05-22T01:36:32;100953.81;;;12.07;100.00
42859;BME280;28505;56.970;40.998;2023-05-22T01:41:58;100966.75;;;12.15;100.00
42859;BME280;28505;56.970;40.998;2023-05-22T01:47:19;100964.53;;;12.22;100.00
42859;BME280;28505;56.970;40.998;2023-05-22T01:58:15;100949.63;;;12.30;100.00
42859;BME280;28505;56.970;40.998;2023-05-22T02:03:39;100954.19;;;12.34;100.00
42859;BME280;28505;56.970;40.998;2023-05-22T02:09:04;100943.06;;;12.41;100.00
42859;BME280;28505;56.970;40.998;2023-05-22T02:14:31;100951.63;;;12.53;100.00
42859;BME280;28505;56.970;40.998;2023-05-22T02:19:53;100952.41;;;12.59;100.00
42859;BME280;28505;56.970;40.998;2023-05-22T02:25:15;100951.50;;;12.69;100.00
42859;BME280;28505;56.970;40.998;2023-05-22T02:30:38;100956.53;;;12.85;100.00
42859;BME280;28505;56.970;40.998;2023-05-22T02:36:00;100951.91;;;12.86;100.00
42859;BME280;28505;56.970;40.998;2023-05-22T02:41:22;100953.44;;;12.97;100.00
42859;BME280;28505;56.970;40.998;2023-05-22T02:46:45;100952.50;;;13.12;100.00
42859;BME280;28505;56.970;40.998;2023-05-22T02:52:07;100946.75;;;13.19;100.00
42859;BME280;28505;56.970;40.998;2023-05-22T02:57:30;100954.28;;;13.22;100.00
42859;BME280;28505;56.970;40.998;2023-05-22T03:02:52;100965.81;;;13.62;100.00
42859;BME280;28505;56.970;40.998;2023-05-22T03:08:14;100961.00;;;13.53;100.00
42859;BME280;28505;56.970;40.998;2023-05-22T03:13:35;100967.59;;;13.47;100.00
42859;BME280;28505;56.970;40.998;2023-05-22T03:24:28;100969.53;;;13.66;100.00
42859;BME280;28505;56.970;40.998;2023-05-22T03:29:51;100967.91;;;13.89;100.00
42859;BME280;28505;56.970;40.998;2023-05-22T03:35:14;100968.56;;;13.99;100.00
42859;BME280;28505;56.970;40.998;2023-05-22T03:40:39;100973.38;;;14.26;100.00
42859;BME280;28505;56.970;40.998;2023-05-22T03:46:02;100977.28;;;14.58;100.00
42859;BME280;28505;56.970;40.998;2023-05-22T03:51:24;100975.13;;;14.74;100.00
42859;BME280;28505;56.970;40.998;2023-05-22T03:56:46;100980.63;;;14.88;100.00
42859;BME280;28505;56.970;40.998;2023-05-22T04:02:08;100977.53;;;14.94;100.00
42859;BME280;28505;56.970;40.998;2023-05-22T04:07:33;100970.63;;;15.16;100.00
42859;BME280;28505;56.970;40.998;2023-05-22T04:12:55;100971.38;;;15.49;100.00
42859;BME280;28505;56.970;40.998;2023-05-22T04:18:19;100969.16;;;15.65;100.00
42859;BME280;28505;56.970;40.998;2023-05-22T04:23:41;100956.00;;;15.72;100.00
42859;BME280;28505;56.970;40.998;2023-05-22T04:29:04;100963.44;;;15.94;100.00
42859;BME280;28505;56.970;40.998;2023-05-22T04:40:02;100968.81;;;16.58;100.00
42859;BME280;28505;56.970;40.998;2023-05-22T04:45:27;100964.13;;;16.95;100.00
42859;BME280;28505;56.970;40.998;2023-05-22T04:50:52;100957.50;;;17.58;100.00
42859;BME280;28505;56.970;40.998;2023-05-22T04:56:14;100961.50;;;18.09;100.00
42859;BME280;28505;56.970;40.998;2023-05-22T05:01:52;100966.50;;;18.16;100.00
42859;BME280;28505;56.970;40.998;2023-05-22T05:07:14;100970.38;;;18.58;100.00
42859;BME280;28505;56.970;40.998;2023-05-22T05:12:38;100973.75;;;18.38;100.00
42859;BME280;28505;56.970;40.998;2023-05-22T05:18:00;100971.78;;;18.47;100.00
42859;BME280;28505;56.970;40.998;2023-05-22T05:23:22;100968.09;;;18.69;100.00
42859;BME280;28505;56.970;40.998;2023-05-22T05:28:44;100963.47;;;18.87;100.00
42859;BME280;28505;56.970;40.998;2023-05-22T05:34:08;100971.19;;;19.32;100.00
42859;BME280;28505;56.970;40.998;2023-05-22T05:40:04;100965.03;;;19.44;100.00
42859;BME280;28505;56.970;40.998;2023-05-22T05:45:29;100959.16;;;19.62;100.00
42859;BME280;28505;56.970;40.998;2023-05-22T05:50:51;100952.59;;;19.63;100.00
42859;BME280;28505;56.970;40.998;2023-05-22T05:56:14;100959.13;;;19.71;100.00
42859;BME280;28505;56.970;40.998;2023-05-22T06:01:37;100950.84;;;19.88;100.00
42859;BME280;28505;56.970;40.998;2023-05-22T06:07:06;100957.13;;;20.10;100.00
42859;BME280;28505;56.970;40.998;2023-05-22T06:12:37;100952.09;;;19.91;100.00
42859;BME280;28505;56.970;40.998;2023-05-22T06:17:59;100956.28;;;20.18;100.00
42859;BME280;28505;56.970;40.998;2023-05-22T06:23:22;100957.84;;;20.40;100.00
42859;BME280;28505;56.970;40.998;2023-05-22T06:28:45;100950.09;;;20.63;100.00
42859;BME280;28505;56.970;40.998;2023-05-22T06:34:07;100949.06;;;21.01;100.00
42859;BME280;28505;56.970;40.998;2023-05-22T06:39:29;100951.63;;;21.31;100.00
42859;BME280;28505;56.970;40.998;2023-05-22T06:45:10;100944.00;;;21.61;100.00
42859;BME280;28505;56.970;40.998;2023-05-22T06:50:47;100944.38;;;21.71;100.00
42859;BME280;28505;56.970;40.998;2023-05-22T06:56:08;100953.28;;;22.33;100.00
42859;BME280;28505;56.970;40.998;2023-05-22T07:01:54;100943.97;;;22.66;95.19
42859;BME280;28505;56.970;40.998;2023-05-22T07:07:26;100945.66;;;22.99;91.22
42859;BME280;28505;56.970;40.998;2023-05-22T07:12:50;100939.97;;;22.91;87.60
42859;BME280;28505;56.970;40.998;2023-05-22T07:18:12;100932.72;;;23.15;85.14
42859;BME280;28505;56.970;40.998;2023-05-22T07:23:35;100931.91;;;23.78;78.02
42859;BME280;28505;56.970;40.998;2023-05-22T07:28:58;100936.50;;;24.09;73.42
42859;BME280;28505;56.970;40.998;2023-05-22T07:34:20;100928.53;;;24.04;74.39
42859;BME280;28505;56.970;40.998;2023-05-22T07:39:43;100926.13;;;24.02;66.70
42859;BME280;28505;56.970;40.998;2023-05-22T07:45:08;100936.81;;;24.23;64.30
42859;BME280;28505;56.970;40.998;2023-05-22T07:50:32;100930.22;;;24.28;64.01
42859;BME280;28505;56.970;40.998;2023-05-22T07:55:54;100926.53;;;24.20;62.99
42859;BME280;28505;56.970;40.998;2023-05-22T08:01:17;100915.34;;;24.94;62.74
42859;BME280;28505;56.970;40.998;2023-05-22T08:06:39;100921.09;;;24.63;62.33
42859;BME280;28505;56.970;40.998;2023-05-22T08:12:02;100921.22;;;25.12;62.82
42859;BME280;28505;56.970;40.998;2023-05-22T08:17:27;100932.25;;;25.12;63.25
42859;BME280;28505;56.970;40.998;2023-05-22T08:22:49;100928.66;;;24.89;56.57
42859;BME280;28505;56.970;40.998;2023-05-22T08:28:13;100927.94;;;24.92;56.75
42859;BME280;28505;56.970;40.998;2023-05-22T08:33:34;100928.03;;;24.99;56.27
42859;BME280;28505;56.970;40.998;2023-05-22T08:38:56;100922.25;;;25.08;55.43
42859;BME280;28505;56.970;40.998;2023-05-22T08:44:17;100932.78;;;24.98;53.88
42859;BME280;28505;56.970;40.998;2023-05-22T08:49:41;100927.78;;;24.85;55.12
42859;BME280;28505;56.970;40.998;2023-05-22T08:55:03;100921.13;;;24.43;53.45
42859;BME280;28505;56.970;40.998;2023-05-22T09:00:28;100923.59;;;24.71;53.45
42859;BME280;28505;56.970;40.998;2023-05-22T09:05:50;100921.16;;;24.66;54.80
42859;BME280;28505;56.970;40.998;2023-05-22T09:11:12;100911.22;;;24.85;54.86
42859;BME280;28505;56.970;40.998;2023-05-22T09:16:46;100917.13;;;25.06;53.70
42859;BME280;28505;56.970;40.998;2023-05-22T09:22:09;100909.06;;;25.17;52.88
42859;BME280;28505;56.970;40.998;2023-05-22T09:27:34;100909.03;;;25.40;50.53
42859;BME280;28505;56.970;40.998;2023-05-22T09:32:56;100900.44;;;25.45;50.73
42859;BME280;28505;56.970;40.998;2023-05-22T09:38:20;100901.47;;;25.37;50.02
42859;BME280;28505;56.970;40.998;2023-05-22T09:43:48;100909.59;;;25.26;49.27
42859;BME280;28505;56.970;40.998;2023-05-22T09:49:10;100893.94;;;25.11;47.66
42859;BME280;28505;56.970;40.998;2023-05-22T09:54:36;100888.09;;;25.12;45.95
42859;BME280;28505;56.970;40.998;2023-05-22T10:00:00;100886.63;;;25.18;47.65
42859;BME280;28505;56.970;40.998;2023-05-22T10:05:31;100884.03;;;25.06;46.43
42859;BME280;28505;56.970;40.998;2023-05-22T10:10:53;100879.00;;;25.35;47.45
42859;BME280;28505;56.970;40.998;2023-05-22T10:16:16;100875.19;;;25.46;44.37
42859;BME280;28505;56.970;40.998;2023-05-22T10:21:38;100869.94;;;25.64;43.55
42859;BME280;28505;56.970;40.998;2023-05-22T10:27:02;100869.38;;;25.52;40.09
42859;BME280;28505;56.970;40.998;2023-05-22T10:32:26;100864.25;;;25.54;41.28
42859;BME280;28505;56.970;40.998;2023-05-22T10:37:59;100861.88;;;25.52;39.86
42859;BME280;28505;56.970;40.998;2023-05-22T10:43:28;100858.44;;;25.32;39.97
42859;BME280;28505;56.970;40.998;2023-05-22T10:48:52;100848.28;;;25.40;38.99
42859;BME280;28505;56.970;40.998;2023-05-22T10:54:16;100846.50;;;25.51;39.90
42859;BME280;28505;56.970;40.998;2023-05-22T10:59:38;100848.09;;;25.26;40.51
42859;BME280;28505;56.970;40.998;2023-05-22T11:10:53;100841.94;;;25.36;39.35
42859;BME280;28505;56.970;40.998;2023-05-22T11:16:15;100841.13;;;24.86;39.57
42859;BME280;28505;56.970;40.998;2023-05-22T11:21:43;100830.31;;;25.00;35.69
42859;BME280;28505;56.970;40.998;2023-05-22T11:27:08;100835.78;;;25.19;33.77
42859;BME280;28505;56.970;40.998;2023-05-22T11:32:36;100835.94;;;25.07;35.48
42859;BME280;28505;56.970;40.998;2023-05-22T11:37:58;100824.53;;;24.82;39.82
42859;BME280;28505;56.970;40.998;2023-05-22T11:43:29;100827.88;;;24.95;39.28
42859;BME280;28505;56.970;40.998;2023-05-22T11:48:55;100824.06;;;25.03;37.39
42859;BME280;28505;56.970;40.998;2023-05-22T11:54:17;100813.19;;;25.40;37.81
42859;BME280;28505;56.970;40.998;2023-05-22T11:59:38;100816.97;;;25.55;34.36
42859;BME280;28505;56.970;40.998;2023-05-22T12:05:00;100811.34;;;25.48;33.63
42859;BME280;28505;56.970;40.998;2023-05-22T12:10:24;100802.53;;;25.39;35.94
42859;BME280;28505;56.970;40.998;2023-05-22T12:15:46;100803.47;;;25.50;34.04
42859;BME280;28505;56.970;40.998;2023-05-22T12:21:08;100802.19;;;25.71;35.61
42859;BME280;28505;56.970;40.998;2023-05-22T12:26:31;100804.91;;;25.40;34.56
42859;BME280;28505;56.970;40.998;2023-05-22T12:31:52;100802.66;;;25.19;33.96
42859;BME280;28505;56.970;40.998;2023-05-22T12:37:18;100795.41;;;25.34;36.57
42859;BME280;28505;56.970;40.998;2023-05-22T12:42:44;100785.25;;;25.42;35.30
42859;BME280;28505;56.970;40.998;2023-05-22T12:48:06;100790.44;;;25.20;35.49
42859;BME280;28505;56.970;40.998;2023-05-22T12:53:29;100792.38;;;24.93;34.77
42859;BME280;28505;56.970;40.998;2023-05-22T12:58:51;100792.13;;;24.52;35.48
42859;BME280;28505;56.970;40.998;2023-05-22T13:04:13;100787.06;;;24.81;35.95
42859;BME280;28505;56.970;40.998;2023-05-22T13:09:35;100777.16;;;25.03;36.38
42859;BME280;28505;56.970;40.998;2023-05-22T13:15:01;100773.72;;;25.10;35.19
42859;BME280;28505;56.970;40.998;2023-05-22T13:20:28;100771.84;;;25.44;37.28
42859;BME280;28505;56.970;40.998;2023-05-22T13:25:50;100762.94;;;25.88;37.80
42859;BME280;28505;56.970;40.998;2023-05-22T13:31:11;100766.00;;;26.17;33.22
42859;BME280;28505;56.970;40.998;2023-05-22T13:36:34;100749.88;;;26.26;34.51
42859;BME280;28505;56.970;40.998;2023-05-22T13:41:56;100759.81;;;25.93;32.44
42859;BME280;28505;56.970;40.998;2023-05-22T13:47:18;100755.03;;;25.56;33.98
42859;BME280;28505;56.970;40.998;2023-05-22T13:52:40;100758.97;;;24.98;34.04
42859;BME280;28505;56.970;40.998;2023-05-22T13:58:03;100751.91;;;24.74;36.46
42859;BME280;28505;56.970;40.998;2023-05-22T14:03:25;100753.78;;;24.44;35.94
42859;BME280;28505;56.970;40.998;2023-05-22T14:08:47;100758.25;;;24.33;35.41
42859;BME280;28505;56.970;40.998;2023-05-22T14:14:09;100752.56;;;24.22;36.53
42859;BME280;28505;56.970;40.998;2023-05-22T14:19:31;100746.75;;;24.04;37.14
42859;BME280;28505;56.970;40.998;2023-05-22T14:24:53;100749.50;;;24.04;37.69
42859;BME280;28505;56.970;40.998;2023-05-22T14:30:15;100748.34;;;24.05;37.66
42859;BME280;28505;56.970;40.998;2023-05-22T14:35:37;100736.94;;;24.29;37.04
42859;BME280;28505;56.970;40.998;2023-05-22T14:41:00;100737.75;;;24.49;36.72
42859;BME280;28505;56.970;40.998;2023-05-22T14:46:22;100726.53;;;24.65;36.75
42859;BME280;28505;56.970;40.998;2023-05-22T14:51:45;100724.34;;;24.74;37.98
42859;BME280;28505;56.970;40.998;2023-05-22T14:57:08;100713.53;;;24.89;36.31
42859;BME280;28505;56.970;40.998;2023-05-22T15:02:30;100717.66;;;25.02;36.01
42859;BME280;28505;56.970;40.998;2023-05-22T15:07:53;100707.50;;;25.10;35.16
42859;BME280;28505;56.970;40.998;2023-05-22T15:13:18;100701.97;;;25.10;35.26
42859;BME280;28505;56.970;40.998;2023-05-22T15:18:41;100701.94;;;25.06;34.74
42859;BME280;28505;56.970;40.998;2023-05-22T15:24:04;100709.88;;;25.38;35.69
42859;BME280;28505;56.970;40.998;2023-05-22T15:29:26;100707.72;;;25.24;33.64
42859;BME280;28505;56.970;40.998;2023-05-22T15:34:50;100710.16;;;25.03;34.46
42859;BME280;28505;56.970;40.998;2023-05-22T15:40:13;100713.41;;;24.82;35.84
42859;BME280;28505;56.970;40.998;2023-05-22T15:45:37;100718.22;;;24.39;39.49
42859;BME280;28505;56.970;40.998;2023-05-22T15:51:00;100710.47;;;23.59;39.14
42859;BME280;28505;56.970;40.998;2023-05-22T15:56:22;100725.16;;;23.09;42.14
42859;BME280;28505;56.970;40.998;2023-05-22T16:01:45;100719.69;;;22.46;47.81
42859;BME280;28505;56.970;40.998;2023-05-22T16:07:07;100737.63;;;21.95;48.58
42859;BME280;28505;56.970;40.998;2023-05-22T16:12:29;100729.19;;;21.60;49.25
42859;BME280;28505;56.970;40.998;2023-05-22T16:17:51;100725.28;;;21.21;49.96
42859;BME280;28505;56.970;40.998;2023-05-22T16:23:14;100727.28;;;20.84;50.55
42859;BME280;28505;56.970;40.998;2023-05-22T16:28:37;100732.19;;;20.53;51.56
42859;BME280;28505;56.970;40.998;2023-05-22T16:33:59;100729.47;;;20.20;53.63
42859;BME280;28505;56.970;40.998;2023-05-22T16:39:21;100738.38;;;19.84;55.76
42859;BME280;28505;56.970;40.998;2023-05-22T16:44:43;100735.66;;;19.63;57.54
42859;BME280;28505;56.970;40.998;2023-05-22T16:50:06;100737.03;;;19.36;59.81
42859;BME280;28505;56.970;40.998;2023-05-22T16:55:29;100744.88;;;19.16;58.94
42859;BME280;28505;56.970;40.998;2023-05-22T17:00:52;100741.44;;;18.99;61.42
42859;BME280;28505;56.970;40.998;2023-05-22T17:06:13;100744.94;;;18.78;65.04
42859;BME280;28505;56.970;40.998;2023-05-22T17:11:37;100752.72;;;18.50;68.58
42859;BME280;28505;56.970;40.998;2023-05-22T17:16:59;100742.22;;;18.31;69.81
42859;BME280;28505;56.970;40.998;2023-05-22T17:22:21;100751.06;;;18.19;68.87
42859;BME280;28505;56.970;40.998;2023-05-22T17:27:43;100741.31;;;18.01;74.32
42859;BME280;28505;56.970;40.998;2023-05-22T17:33:05;100753.69;;;17.90;77.47
42859;BME280;28505;56.970;40.998;2023-05-22T17:38:28;100758.00;;;17.73;77.77
42859;BME280;28505;56.970;40.998;2023-05-22T17:43:50;100754.16;;;17.57;78.47
42859;BME280;28505;56.970;40.998;2023-05-22T17:49:12;100757.69;;;17.40;87.00
42859;BME280;28505;56.970;40.998;2023-05-22T17:54:34;100755.91;;;17.27;87.90
42859;BME280;28505;56.970;40.998;2023-05-22T17:59:59;100755.06;;;17.09;87.26
42859;BME280;28505;56.970;40.998;2023-05-22T18:05:33;100759.16;;;16.89;100.00
42859;BME280;28505;56.970;40.998;2023-05-22T18:10:56;100754.31;;;16.77;98.48
42859;BME280;28505;56.970;40.998;2023-05-22T18:16:19;100758.75;;;16.73;98.51
42859;BME280;28505;56.970;40.998;2023-05-22T18:21:41;100759.53;;;16.65;97.31
42859;BME280;28505;56.970;40.998;2023-05-22T18:27:03;100763.53;;;16.59;91.84
42859;BME280;28505;56.970;40.998;2023-05-22T18:32:25;100761.56;;;16.51;89.46
42859;BME280;28505;56.970;40.998;2023-05-22T18:37:47;100759.59;;;16.43;94.60
42859;BME280;28505;56.970;40.998;2023-05-22T18:43:11;100762.09;;;16.30;98.29
42859;BME280;28505;56.970;40.998;2023-05-22T18:48:33;100762.00;;;16.13;100.00
42859;BME280;28505;56.970;40.998;2023-05-22T18:53:55;100757.44;;;16.00;100.00
42859;BME280;28505;56.970;40.998;2023-05-22T18:59:16;100761.03;;;15.86;100.00
42859;BME280;28505;56.970;40.998;2023-05-22T19:04:38;100756.31;;;15.78;100.00
42859;BME280;28505;56.970;40.998;2023-05-22T19:10:00;100763.91;;;15.67;100.00
42859;BME280;28505;56.970;40.998;2023-05-22T19:15:24;100769.06;;;15.55;100.00
42859;BME280;28505;56.970;40.998;2023-05-22T19:20:47;100763.06;;;15.44;100.00
42859;BME280;28505;56.970;40.998;2023-05-22T19:26:12;100768.34;;;15.27;100.00
42859;BME280;28505;56.970;40.998;2023-05-22T19:31:35;100760.09;;;15.18;100.00
42859;BME280;28505;56.970;40.998;2023-05-22T19:36:58;100756.38;;;15.14;100.00
42859;BME280;28505;56.970;40.998;2023-05-22T19:42:20;100766.03;;;15.07;100.00
42859;BME280;28505;56.970;40.998;2023-05-22T19:47:42;100750.03;;;15.05;100.00
42859;BME280;28505;56.970;40.998;2023-05-22T19:53:04;100747.13;;;15.02;100.00
42859;BME280;28505;56.970;40.998;2023-05-22T19:58:26;100741.81;;;14.96;100.00
42859;BME280;28505;56.970;40.998;2023-05-22T20:03:49;100747.44;;;14.86;100.00
42859;BME280;28505;56.970;40.998;2023-05-22T20:09:10;100741.72;;;14.74;100.00
42859;BME280;28505;56.970;40.998;2023-05-22T20:14:32;100740.59;;;14.61;100.00
42859;BME280;28505;56.970;40.998;2023-05-22T20:19:55;100740.75;;;14.37;100.00
42859;BME280;28505;56.970;40.998;2023-05-22T20:25:19;100734.50;;;14.23;100.00
42859;BME280;28505;56.970;40.998;2023-05-22T20:30:42;100744.13;;;14.15;100.00
42859;BME280;28505;56.970;40.998;2023-05-22T20:36:04;100742.72;;;14.18;100.00
42859;BME280;28505;56.970;40.998;2023-05-22T20:41:26;100742.44;;;14.19;100.00
42859;BME280;28505;56.970;40.998;2023-05-22T20:46:49;100743.84;;;14.17;100.00
42859;BME280;28505;56.970;40.998;2023-05-22T20:52:11;100743.84;;;14.17;100.00
42859;BME280;28505;56.970;40.998;2023-05-22T20:57:33;100742.19;;;14.16;100.00
42859;BME280;28505;56.970;40.998;2023-05-22T21:02:55;100748.94;;;14.18;100.00
42859;BME280;28505;56.970;40.998;2023-05-22T21:08:19;100746.94;;;14.10;100.00
42859;BME280;28505;56.970;40.998;2023-05-22T21:13:42;100749.00;;;13.99;100.00
42859;BME280;28505;56.970;40.998;2023-05-22T21:19:04;100739.28;;;13.79;100.00
42859;BME280;28505;56.970;40.998;2023-05-22T21:24:29;100742.53;;;13.63;100.00
42859;BME280;28505;56.970;40.998;2023-05-22T21:29:51;100747.94;;;13.44;100.00
42859;BME280;28505;56.970;40.998;2023-05-22T21:35:14;100748.47;;;13.27;100.00
42859;BME280;28505;56.970;40.998;2023-05-22T21:40:36;100743.25;;;13.11;100.00
42859;BME280;28505;56.970;40.998;2023-05-22T21:53:50;100741.53;;;12.73;100.00
42859;BME280;28505;56.970;40.998;2023-05-22T21:59:12;100744.38;;;12.62;100.00
42859;BME280;28505;56.970;40.998;2023-05-22T22:04:34;100742.81;;;12.56;100.00
42859;BME280;28505;56.970;40.998;2023-05-22T22:09:57;100737.22;;;12.48;100.00
42859;BME280;28505;56.970;40.998;2023-05-22T22:15:19;100739.44;;;12.40;100.00
42859;BME280;28505;56.970;40.998;2023-05-22T22:20:42;100743.25;;;12.39;100.00
42859;BME280;28505;56.970;40.998;2023-05-22T22:26:06;100743.53;;;12.38;100.00
42859;BME280;28505;56.970;40.998;2023-05-22T22:31:28;100741.84;;;12.42;100.00
42859;BME280;28505;56.970;40.998;2023-05-22T22:36:50;100741.63;;;12.38;100.00
42859;BME280;28505;56.970;40.998;2023-05-22T22:42:12;100736.50;;;12.37;100.00
42859;BME280;28505;56.970;40.998;2023-05-22T22:47:34;100738.78;;;12.25;100.00
42859;BME280;28505;56.970;40.998;2023-05-22T22:52:57;100738.34;;;12.12;100.00
42859;BME280;28505;56.970;40.998;2023-05-22T22:58:19;100732.94;;;12.12;100.00
42859;BME280;28505;56.970;40.998;2023-05-22T23:03:42;100732.16;;;12.12;100.00
42859;BME280;28505;56.970;40.998;2023-05-22T23:09:04;100737.34;;;12.03;100.00
42859;BME280;28505;56.970;40.998;2023-05-22T23:14:26;100733.34;;;12.01;100.00
42859;BME280;28505;56.970;40.998;2023-05-22T23:19:48;100725.00;;;11.97;100.00
42859;BME280;28505;56.970;40.998;2023-05-22T23:25:10;100728.19;;;11.99;100.00
42859;BME280;28505;56.970;40.998;2023-05-22T23:30:32;100721.72;;;12.00;100.00
42859;BME280;28505;56.970;40.998;2023-05-22T23:35:54;100720.66;;;11.96;100.00
42859;BME280;28505;56.970;40.998;2023-05-22T23:41:17;100723.09;;;11.98;100.00
42859;BME280;28505;56.970;40.998;2023-05-22T23:46:39;100712.06;;;11.94;100.00
42859;BME280;28505;56.970;40.998;2023-05-22T23:52:02;100714.25;;;11.87;100.00
42859;BME280;28505;56.970;40.998;2023-05-22T23:57:25;100707.31;;;11.76;100.00
